Radiance Of The Seas — C6SE7 — position and weather

sailwx.info

Track history (hours):
 
Tides and Currents Weather Stations Pressure Air Temp Water Temp Dewpoint Dewpoint Depression Visibility Wind Speed Wind Dir Waves Ship Positions

Radiance Of The Seas

Operator: Royal Caribbean Cruises Ltd

Last reported at 2014-Jul-31 06:33 UTC. Time now 2014-Jul-31 21:35 UTC.
Position N 58°19' W 135°54'.

Type: Passenger vessel. MMSI: 311319000.

Date/timePositionNaut miles runAvg speedWind from/ knotsBaromVisibWave heightAir tempDewpointWater temp
2014-Jul-31 06:33N 58°19' W 135°54'2120.5
2014-Jul-31 05:32N 58°12' W 135°16'815.8
2014-Jul-31 05:00N 58°06' W 135°06'25 0.5 290 / 121021.0 2.2 0.513.0 13.0
2014-Jul-29 05:00N 58°06' W 135°54'32 2.3 020 / 121016.0 2.2 0.513.0 12.0
2014-Jul-28 15:00N 58°00' W 134°54'18313.1 320 / 71017.0 2.2 1.012.0 6.113.0
2014-Jul-28 01:00N 55°24' W 132°00'306 8.6 160 / 171020.0 5.4 3.014.0 8.514.0
2014-Jul-26 13:33N 50°58' W 127°46'1515.2
2014-Jul-26 12:33N 50°50' W 127°27'1616.1
2014-Jul-26 11:33N 50°44' W 127°03'1915.3
2014-Jul-26 10:19N 50°32' W 126°40'8414.5
2014-Jul-26 04:31N 49°46' W 124°50'1717.2
2014-Jul-26 03:33N 49°34' W 124°32'1716.8
2014-Jul-26 02:33N 49°24' W 124°11'1717.2
2014-Jul-26 01:33N 49°20' W 123°45'1716.8
2014-Jul-26 00:33N 49°19' W 123°20'9 8.8
2014-Jul-25 23:33N 49°17' W 123°06'0 0.0
2014-Jul-25 22:33N 49°17' W 123°06'0 0.0
2014-Jul-25 21:33N 49°17' W 123°06'0 0.0
2014-Jul-25 20:33N 49°17' W 123°06'0 0.0
2014-Jul-25 19:33N 49°17' W 123°06'0 0.0
2014-Jul-25 18:33N 49°17' W 123°06'0 0.0
2014-Jul-25 17:33N 49°17' W 123°06'0 0.0
2014-Jul-25 16:33N 49°17' W 123°06'0 0.0
2014-Jul-25 15:33N 49°17' W 123°06'0 0.0
2014-Jul-25 14:33N 49°17' W 123°06'0 0.4
2014-Jul-25 13:33N 49°18' W 123°06'1212.2
2014-Jul-25 12:33N 49°18' W 123°25'1515.5
2014-Jul-25 11:34N 49°20' W 123°49'1515.3
2014-Jul-25 10:33N 49°24' W 124°11'1515.0
2014-Jul-25 09:33N 49°31' W 124°31'1515.3
2014-Jul-25 08:33N 49°43' W 124°47'1615.5
2014-Jul-25 07:33N 49°54' W 125°04'7414.3
2014-Jul-25 02:23N 50°34' W 126°41'2217.3
2014-Jul-25 01:07N 50°46' W 127°10'1017.9
2014-Jul-25 00:33N 50°49' W 127°25'1616.6
2014-Jul-24 23:33N 50°59' W 127°47'1413.7
2014-Jul-24 22:32N 51°04' W 128°07'22313.9
2014-Jul-24 06:33N 54°19' W 131°07'2035.4
2014-Jul-24 06:00N 54°36' W 131°24'218 8.1 250 / 251015.0 5.4 1.013.0 14.0
2014-Jul-23 03:00N 57°42' W 134°48'55 1.3 180 / 251016.0 2.2 1.013.0 13.0
2014-Jul-21 09:00N 58°36' W 135°06'   360 / 41007.010.8 0.510.0 11.0
Track history (hours):
 
Tides and Currents Weather Stations Pressure Air Temp Water Temp Dewpoint Dewpoint Depression Visibility Wind Speed Wind Dir Waves Ship Positions

Radiance Of The Seas

Operator: Royal Caribbean Cruises Ltd

Last reported at 2014-Jul-31 06:33 UTC. Time now 2014-Jul-31 21:35 UTC.
Position N 58°19' W 135°54'.

Type: Passenger vessel. MMSI: 311319000.

Date/timePositionNaut miles runAvg speedWind from/ knotsBaromVisibWave heightAir tempDewpointWater temp
2014-Jul-31 06:33N 58°19' W 135°54'2120.5
2014-Jul-31 05:32N 58°12' W 135°16'815.8
2014-Jul-31 05:00N 58°06' W 135°06'25 0.5 290 / 121021.0 2.2 0.513.0 13.0
2014-Jul-29 05:00N 58°06' W 135°54'32 2.3 020 / 121016.0 2.2 0.513.0 12.0
2014-Jul-28 15:00N 58°00' W 134°54'18313.1 320 / 71017.0 2.2 1.012.0 6.113.0
2014-Jul-28 01:00N 55°24' W 132°00'306 8.6 160 / 171020.0 5.4 3.014.0 8.514.0
2014-Jul-26 13:33N 50°58' W 127°46'1515.2
2014-Jul-26 12:33N 50°50' W 127°27'1616.1
2014-Jul-26 11:33N 50°44' W 127°03'1915.3
2014-Jul-26 10:19N 50°32' W 126°40'8414.5
2014-Jul-26 04:31N 49°46' W 124°50'1717.2
2014-Jul-26 03:33N 49°34' W 124°32'1716.8
2014-Jul-26 02:33N 49°24' W 124°11'1717.2
2014-Jul-26 01:33N 49°20' W 123°45'1716.8
2014-Jul-26 00:33N 49°19' W 123°20'9 8.8
2014-Jul-25 23:33N 49°17' W 123°06'0 0.0
2014-Jul-25 22:33N 49°17' W 123°06'0 0.0
2014-Jul-25 21:33N 49°17' W 123°06'0 0.0
2014-Jul-25 20:33N 49°17' W 123°06'0 0.0
2014-Jul-25 19:33N 49°17' W 123°06'0 0.0
2014-Jul-25 18:33N 49°17' W 123°06'0 0.0
2014-Jul-25 17:33N 49°17' W 123°06'0 0.0
2014-Jul-25 16:33N 49°17' W 123°06'0 0.0
2014-Jul-25 15:33N 49°17' W 123°06'0 0.0
2014-Jul-25 14:33N 49°17' W 123°06'0 0.4
2014-Jul-25 13:33N 49°18' W 123°06'1212.2
2014-Jul-25 12:33N 49°18' W 123°25'1515.5
2014-Jul-25 11:34N 49°20' W 123°49'1515.3
2014-Jul-25 10:33N 49°24' W 124°11'1515.0
2014-Jul-25 09:33N 49°31' W 124°31'1515.3
2014-Jul-25 08:33N 49°43' W 124°47'1615.5
2014-Jul-25 07:33N 49°54' W 125°04'7414.3
2014-Jul-25 02:23N 50°34' W 126°41'2217.3
2014-Jul-25 01:07N 50°46' W 127°10'1017.9
2014-Jul-25 00:33N 50°49' W 127°25'1616.6
2014-Jul-24 23:33N 50°59' W 127°47'1413.7
2014-Jul-24 22:32N 51°04' W 128°07'22313.9
2014-Jul-24 06:33N 54°19' W 131°07'2035.4
2014-Jul-24 06:00N 54°36' W 131°24'218 8.1 250 / 251015.0 5.4 1.013.0 14.0
2014-Jul-23 03:00N 57°42' W 134°48'55 1.3 180 / 251016.0 2.2 1.013.0 13.0
2014-Jul-21 09:00N 58°36' W 135°06'   360 / 41007.010.8 0.510.0 11.0

Dump ship's entire track history